aviador You're here:

LQSA Decoded Metar

SARAJEVO in BOSNIA-HERCEGOVINA
Report Time2017-08-24 08:30:00
UTC Time2017-08-24 08:53:02
Flight Rules vfr VFR
Wind290° at 03 kt
W.Decomp.*RWY 30: 2.9 kt HW 0.6 kt LCW
W.Rank290° ranks 1
Current wind is below 290° avg. (5.1)
Visibility9999 m
Phenomena:N/A
Clouds:N/A
Expected CloudBase > 4,400 ft AGL from Temp-Dew spread
CeilingNone
Temp19°C (ISA +7)
Dew Point08°C (49% RH)
AAT17.5°C
QNH1022 hPa
Density Alt2,382 ft
Elevation1,677 ft
Report Wrong Elevation
Raw Report
LQSA 240830Z 29003KT 200V330 CAVOK 19/08 Q1022 NOSIG=

Extra information for LQSA:More info

Metar Taf Metar & Taf Last 4 Metars F.Rules Stats Wind Profile Meteogram Temp Stats Airport Information Weather charts Add Link Nearby VenuesMetar ALERT Operation Metar Decoded Social comments